createdAt,value
2022-12-19T00:01:32.487Z,102856.50
2022-12-19T00:03:35.177Z,102855.63
2022-12-19T00:05:39.318Z,102859.00
2022-12-19T00:07:41.223Z,102846.94
2022-12-19T00:09:43.137Z,102846.94
2022-12-19T00:11:47.858Z,102846.16
2022-12-19T00:13:51.585Z,102845.16
2022-12-19T00:15:53.744Z,102850.47
2022-12-19T00:17:55.676Z,102854.56
2022-12-19T00:19:57.606Z,102848.78
2022-12-19T00:21:59.562Z,102851.78
2022-12-19T00:24:02.099Z,102848.81
2022-12-19T00:26:21.639Z,102847.41
2022-12-19T00:28:23.590Z,102848.09
2022-12-19T00:30:25.618Z,102848.31
2022-12-19T00:32:28.077Z,102857.41
2022-12-19T00:34:29.986Z,102860.22
2022-12-19T00:36:34.238Z,102861.31
2022-12-19T00:38:36.089Z,102868.75
2022-12-19T00:40:37.958Z,102870.16
2022-12-19T00:42:39.942Z,102871.53
2022-12-19T00:44:42.881Z,102871.75
2022-12-19T00:46:51.505Z,102876.66
2022-12-19T00:48:55.374Z,102870.44
2022-12-19T00:51:02.414Z,102867.72
2022-12-19T00:53:04.294Z,102876.34
2022-12-19T00:55:09.260Z,102871.16
2022-12-19T00:57:20.298Z,102859.75
2022-12-19T00:59:26.378Z,102864.03
2022-12-19T01:01:34.946Z,102864.94
2022-12-19T01:03:37.098Z,102855.81
2022-12-19T01:05:42.053Z,102855.13
2022-12-19T01:07:44.096Z,102853.75
2022-12-19T01:09:46.000Z,102861.25
2022-12-19T01:12:09.207Z,102861.63
2022-12-19T01:14:17.427Z,102862.63
2022-12-19T01:16:22.862Z,102854.50
2022-12-19T01:18:24.752Z,102847.13
2022-12-19T01:20:29.547Z,102849.03
2022-12-19T01:22:31.819Z,102844.41
2022-12-19T01:24:33.670Z,102832.63
2022-12-19T01:26:35.606Z,102840.81
2022-12-19T01:28:37.493Z,102835.81
2022-12-19T01:30:40.293Z,102840.44
2022-12-19T01:32:43.633Z,102834.03
2022-12-19T01:34:45.581Z,102826.91
2022-12-19T01:36:47.506Z,102824.00
2022-12-19T01:38:49.441Z,102823.28
2022-12-19T01:40:53.300Z,102823.72
2022-12-19T01:42:55.193Z,102820.28
2022-12-19T01:45:13.391Z,102818.38
2022-12-19T01:47:15.735Z,102818.63
2022-12-19T01:49:25.943Z,102820.41
2022-12-19T01:51:41.723Z,102820.41
2022-12-19T01:53:49.676Z,102832.25
2022-12-19T01:55:53.097Z,102823.03
2022-12-19T01:57:57.290Z,102821.34
2022-12-19T02:00:01.424Z,102831.53
2022-12-19T02:02:26.977Z,102827.44
2022-12-19T02:04:32.721Z,102812.44
2022-12-19T02:06:35.333Z,102807.03
2022-12-19T02:08:38.045Z,102802.72
2022-12-19T02:10:40.003Z,102796.34
2022-12-19T02:12:44.454Z,102792.34
2022-12-19T02:14:47.260Z,102788.03
2022-12-19T02:17:00.992Z,102786.63
2022-12-19T02:19:27.444Z,102787.66
2022-12-19T02:21:29.253Z,102778.66
2022-12-19T02:24:18.146Z,102783.75
2022-12-19T02:26:40.332Z,102797.47
2022-12-19T02:29:00.889Z,102802.28
2022-12-19T02:31:20.034Z,102810.16
2022-12-19T02:33:39.310Z,102793.50
2022-12-19T02:35:47.090Z,102793.16
2022-12-19T02:37:56.030Z,102786.84
2022-12-19T02:40:09.608Z,102793.06
2022-12-19T02:42:15.455Z,102784.88
2022-12-19T02:44:33.801Z,102791.75
2022-12-19T02:46:35.742Z,102792.13
2022-12-19T02:48:38.390Z,102784.34
2022-12-19T02:50:46.610Z,102781.44
2022-12-19T02:52:51.868Z,102784.31
2022-12-19T02:54:58.043Z,102785.13
2022-12-19T02:57:15.497Z,102781.34
2022-12-19T02:59:56.263Z,102776.84
2022-12-19T03:02:13.338Z,102785.13
2022-12-19T03:04:33.448Z,102782.81
2022-12-19T03:06:44.168Z,102781.56
2022-12-19T03:08:59.348Z,102775.28
2022-12-19T03:11:04.093Z,102782.16
2022-12-19T03:13:23.161Z,102776.78
2022-12-19T03:15:26.505Z,102769.97
2022-12-19T03:17:29.307Z,102764.56
2022-12-19T03:19:32.223Z,102758.88
2022-12-19T03:21:44.795Z,102763.69
2022-12-19T03:23:48.297Z,102776.97
2022-12-19T03:26:01.585Z,102779.47
2022-12-19T03:28:12.535Z,102780.31
2022-12-19T03:30:15.950Z,102767.22
2022-12-19T03:32:18.951Z,102776.81
2022-12-19T03:34:31.419Z,102771.94
2022-12-19T03:36:40.410Z,102779.31
2022-12-19T03:38:45.537Z,102782.97
2022-12-19T03:40:49.359Z,102770.22
2022-12-19T03:43:12.311Z,102763.78
2022-12-19T03:45:24.229Z,102769.41
2022-12-19T03:47:58.806Z,102762.97
2022-12-19T03:50:00.810Z,102756.59
2022-12-19T03:52:11.753Z,102748.97
2022-12-19T03:54:30.261Z,102743.38
2022-12-19T03:56:56.211Z,102750.34
2022-12-19T03:59:03.789Z,102749.50
2022-12-19T04:01:06.856Z,102738.88
2022-12-19T04:03:10.479Z,102735.88
2022-12-19T04:05:18.361Z,102741.34
2022-12-19T04:07:21.597Z,102733.53
2022-12-19T04:09:25.650Z,102719.94
2022-12-19T04:11:34.674Z,102720.63
2022-12-19T04:13:43.975Z,102715.94
2022-12-19T04:15:51.073Z,102708.16
2022-12-19T04:17:58.122Z,102699.25
2022-12-19T04:20:05.250Z,102694.69
2022-12-19T04:22:22.989Z,102699.25
2022-12-19T04:24:30.807Z,102699.66
2022-12-19T04:26:36.867Z,102694.19
2022-12-19T04:28:43.853Z,102693.28
2022-12-19T04:30:46.824Z,102695.66
2022-12-19T04:32:50.823Z,102692.53
2022-12-19T04:34:53.696Z,102687.06
2022-12-19T04:36:55.773Z,102681.25
2022-12-19T04:38:58.325Z,102684.22
2022-12-19T04:41:00.195Z,102682.09
2022-12-19T04:43:02.245Z,102670.47
2022-12-19T04:45:06.567Z,102665.88
2022-12-19T04:47:08.820Z,102667.25
2022-12-19T04:49:10.749Z,102663.53
2022-12-19T04:51:12.773Z,102661.78
2022-12-19T04:53:15.704Z,102663.41
2022-12-19T04:55:17.594Z,102657.78
2022-12-19T04:57:19.547Z,102668.16
2022-12-19T04:59:21.461Z,102664.72
2022-12-19T05:01:23.345Z,102659.38
2022-12-19T05:03:25.352Z,102653.25
2022-12-19T05:05:27.344Z,102657.59
2022-12-19T05:07:29.336Z,102647.78
2022-12-19T05:09:31.220Z,102652.63
2022-12-19T05:11:34.177Z,102654.03
2022-12-19T05:13:36.389Z,102653.84
2022-12-19T05:15:38.401Z,102648.44
2022-12-19T05:17:41.255Z,102654.41
2022-12-19T05:19:43.157Z,102660.50
2022-12-19T05:21:45.611Z,102651.75
2022-12-19T05:23:47.722Z,102648.44
2022-12-19T05:25:50.368Z,102662.28
2022-12-19T05:27:52.259Z,102664.81
2022-12-19T05:29:55.156Z,102657.91
2022-12-19T05:31:57.088Z,102664.19
2022-12-19T05:33:59.539Z,102680.41
2022-12-19T05:36:02.821Z,102675.97
2022-12-19T05:38:05.118Z,102665.09
2022-12-19T05:40:07.691Z,102669.03
2022-12-19T05:42:12.301Z,102668.91
2022-12-19T05:44:15.589Z,102664.81
2022-12-19T05:46:18.328Z,102658.53
2022-12-19T05:48:20.243Z,102656.94
2022-12-19T05:50:22.105Z,102656.31
2022-12-19T05:52:24.893Z,102655.72
2022-12-19T05:54:27.046Z,102657.94
2022-12-19T05:56:28.999Z,102666.53
2022-12-19T05:58:31.162Z,102656.97
2022-12-19T06:00:33.059Z,102663.41
2022-12-19T06:02:35.470Z,102670.25
2022-12-19T06:04:37.457Z,102671.59
2022-12-19T06:06:39.474Z,102667.91
2022-12-19T06:08:41.880Z,102672.88
2022-12-19T06:10:43.747Z,102676.00
2022-12-19T06:12:46.766Z,102675.63
2022-12-19T06:14:49.705Z,102679.38
2022-12-19T06:16:51.618Z,102678.56
2022-12-19T06:18:53.624Z,102684.69
2022-12-19T06:21:03.019Z,102677.19
2022-12-19T06:23:04.925Z,102679.44
2022-12-19T06:25:07.218Z,102680.78
2022-12-19T06:27:09.160Z,102662.88
2022-12-19T06:29:11.122Z,102658.03
2022-12-19T06:31:13.704Z,102648.06
2022-12-19T06:33:15.750Z,102653.13
2022-12-19T06:35:17.857Z,102653.53
2022-12-19T06:37:19.850Z,102656.53
2022-12-19T06:39:22.632Z,102648.31
2022-12-19T06:41:44.758Z,102651.28
2022-12-19T06:43:53.188Z,102647.47
2022-12-19T06:45:58.421Z,102654.25
2022-12-19T06:48:00.601Z,102661.97
2022-12-19T06:50:02.651Z,102649.50
2022-12-19T06:52:09.023Z,102646.78
2022-12-19T06:54:14.998Z,102651.66
2022-12-19T06:56:17.895Z,102661.16
2022-12-19T06:58:24.094Z,102659.28
2022-12-19T07:00:26.433Z,102663.13
2022-12-19T07:02:31.735Z,102666.78
2022-12-19T07:04:38.423Z,102662.22
2022-12-19T07:06:43.466Z,102661.78
2022-12-19T07:08:49.562Z,102658.41
2022-12-19T07:10:53.164Z,102650.97
2022-12-19T07:12:56.336Z,102645.72
2022-12-19T07:14:59.389Z,102644.88
2022-12-19T07:17:03.263Z,102646.47
2022-12-19T07:19:07.580Z,102653.84
2022-12-19T07:21:14.359Z,102651.91
2022-12-19T07:23:21.253Z,102663.91
2022-12-19T07:25:23.296Z,102649.41
2022-12-19T07:27:35.201Z,102653.84
2022-12-19T07:29:38.046Z,102645.28
2022-12-19T07:31:40.303Z,102642.13
2022-12-19T07:33:42.310Z,102638.94
2022-12-19T07:35:44.304Z,102636.13
2022-12-19T07:37:50.419Z,102636.81
2022-12-19T07:39:53.331Z,102633.84
2022-12-19T07:41:55.312Z,102638.25
2022-12-19T07:43:58.252Z,102639.78
2022-12-19T07:46:02.287Z,102632.66
2022-12-19T07:48:06.048Z,102636.66
2022-12-19T07:50:10.139Z,102632.38
2022-12-19T07:52:12.088Z,102628.25
2022-12-19T07:54:15.054Z,102632.75
2022-12-19T07:56:17.576Z,102627.47
2022-12-19T07:58:21.006Z,102622.66
2022-12-19T08:00:23.708Z,102624.25
2022-12-19T08:02:25.725Z,102620.59
2022-12-19T08:04:28.759Z,102621.75
2022-12-19T08:06:30.837Z,102624.56
2022-12-19T08:08:33.682Z,102621.00
2022-12-19T08:10:35.655Z,102619.31
2022-12-19T08:12:40.001Z,102624.56
2022-12-19T08:14:41.969Z,102622.97
2022-12-19T08:17:11.440Z,102613.06
2022-12-19T08:19:05.766Z,102604.78
2022-12-19T08:21:08.709Z,102596.72
2022-12-19T08:23:10.711Z,102610.34
2022-12-19T08:25:13.627Z,102605.22
2022-12-19T08:27:19.143Z,102605.31
2022-12-19T08:29:21.244Z,102599.50
2022-12-19T08:31:25.654Z,102597.56
2022-12-19T08:33:27.757Z,102597.06
2022-12-19T08:35:30.212Z,102591.41
2022-12-19T08:37:32.237Z,102589.91
2022-12-19T08:39:35.244Z,102589.78
2022-12-19T08:41:37.621Z,102577.34
2022-12-19T08:43:42.715Z,102583.19
2022-12-19T08:45:50.214Z,102579.06
2022-12-19T08:47:57.145Z,102585.28
2022-12-19T08:50:01.521Z,102577.50
2022-12-19T08:52:03.696Z,102582.47
2022-12-19T08:54:07.882Z,102581.50
2022-12-19T08:56:19.893Z,102583.66
2022-12-19T08:58:22.115Z,102568.84
2022-12-19T09:00:25.023Z,102557.91
2022-12-19T09:02:27.846Z,102554.00
2022-12-19T09:05:58.787Z,102549.31
2022-12-19T09:06:52.402Z,102545.84
2022-12-19T09:08:54.759Z,102543.97
2022-12-19T09:11:08.208Z,102538.53
2022-12-19T09:13:12.400Z,102535.09
2022-12-19T09:15:14.405Z,102529.69
2022-12-19T09:17:16.449Z,102518.91
2022-12-19T09:19:18.637Z,102510.31
2022-12-19T09:21:23.486Z,102513.63
2022-12-19T09:23:32.493Z,102508.47
2022-12-19T09:25:34.634Z,102508.66
2022-12-19T09:28:17.465Z,102488.94
2022-12-19T09:29:59.934Z,102494.69
2022-12-19T09:32:01.962Z,102487.84
2022-12-19T09:34:04.693Z,102488.28
2022-12-19T09:36:09.866Z,102481.16
2022-12-19T09:38:12.960Z,102466.97
2022-12-19T09:40:17.579Z,102472.16
2022-12-19T09:42:40.792Z,102473.75
2022-12-19T09:44:46.487Z,102475.88
2022-12-19T09:47:04.464Z,102468.97
2022-12-19T09:49:35.715Z,102460.94
2022-12-19T09:52:03.328Z,102449.28
2022-12-19T09:54:28.603Z,102448.94
2022-12-19T09:56:46.365Z,102448.97
2022-12-19T09:58:57.552Z,102443.06
2022-12-19T10:01:06.144Z,102438.94
2022-12-19T10:03:22.327Z,102434.13
2022-12-19T10:06:32.728Z,102430.00
2022-12-19T10:08:20.176Z,102427.50
2022-12-19T10:12:41.189Z,102430.56
2022-12-19T10:13:52.212Z,102425.38
2022-12-19T10:16:33.296Z,102413.75
2022-12-19T10:18:42.636Z,102401.22
2022-12-19T10:21:03.299Z,102405.16
2022-12-19T10:23:18.459Z,102400.84
2022-12-19T10:25:42.323Z,102397.25
2022-12-19T10:28:00.529Z,102383.06
2022-12-19T10:30:13.163Z,102387.75
2022-12-19T10:32:51.515Z,102363.63
2022-12-19T10:34:54.502Z,102376.66
2022-12-19T10:37:26.748Z,102368.94
2022-12-19T10:40:04.092Z,102370.00
2022-12-19T10:42:30.592Z,102365.88
2022-12-19T10:44:36.721Z,102358.97
2022-12-19T10:46:48.203Z,102346.44
2022-12-19T10:48:52.948Z,102353.94
2022-12-19T10:50:54.931Z,102350.72
2022-12-19T10:53:08.671Z,102351.72
2022-12-19T10:55:38.001Z,102356.25
2022-12-19T10:57:40.414Z,102352.13
2022-12-19T11:00:17.099Z,102349.28
2022-12-19T11:02:33.482Z,102340.34
2022-12-19T11:04:37.190Z,102337.44
2022-12-19T11:06:45.477Z,102327.25
2022-12-19T11:08:47.506Z,102328.72
2022-12-19T11:13:15.507Z,102329.25
2022-12-19T11:19:50.056Z,102322.75
2022-12-19T11:19:50.797Z,102320.19
2022-12-19T11:25:25.172Z,102327.81
2022-12-19T11:29:33.018Z,102320.28
2022-12-19T11:30:09.323Z,102302.97
2022-12-19T11:30:47.997Z,102282.03
2022-12-19T11:30:48.671Z,102277.91
2022-12-19T11:33:10.659Z,102297.53
2022-12-19T11:35:36.584Z,102294.22
2022-12-19T11:37:48.216Z,102293.50
2022-12-19T11:40:02.267Z,102294.41
2022-12-19T11:42:20.069Z,102281.53
2022-12-19T11:44:48.791Z,102284.41
2022-12-19T11:47:06.972Z,102279.38
2022-12-19T11:49:31.423Z,102281.31
2022-12-19T11:51:48.618Z,102275.38
2022-12-19T11:54:23.212Z,102262.84
2022-12-19T11:56:28.040Z,102263.22
2022-12-19T11:58:30.263Z,102263.94
2022-12-19T12:00:33.939Z,102255.69
2022-12-19T12:03:05.313Z,102251.03
2022-12-19T12:05:42.404Z,102257.88
2022-12-19T12:08:00.977Z,102242.47
2022-12-19T12:17:27.166Z,102249.28
2022-12-19T12:21:51.783Z,102237.16
2022-12-19T12:30:16.392Z,102229.75
2022-12-19T12:31:06.801Z,102228.13
2022-12-19T12:31:27.901Z,102230.31
2022-12-19T12:31:29.546Z,102234.41
2022-12-19T12:31:44.390Z,102201.28
2022-12-19T12:31:57.751Z,102219.56
2022-12-19T12:35:28.858Z,102202.84
2022-12-19T12:39:55.293Z,102182.97
2022-12-19T12:42:16.341Z,102184.94
2022-12-19T12:44:22.635Z,102181.91
2022-12-19T12:47:05.386Z,102176.31
2022-12-19T12:49:24.436Z,102170.25
2022-12-19T12:51:27.720Z,102175.47
2022-12-19T12:53:37.535Z,102181.56
2022-12-19T12:55:43.092Z,102170.75
2022-12-19T12:57:45.120Z,102168.75
2022-12-19T12:59:48.072Z,102176.13
2022-12-19T13:02:02.214Z,102171.81
2022-12-19T13:04:19.769Z,102169.88
2022-12-19T13:06:48.352Z,102169.53
2022-12-19T13:08:53.963Z,102180.78
2022-12-19T13:11:00.389Z,102177.63
2022-12-19T13:13:19.787Z,102177.75
2022-12-19T13:15:28.663Z,102167.69
2022-12-19T13:17:33.473Z,102155.56
2022-12-19T13:19:57.815Z,102148.41
2022-12-19T13:22:22.751Z,102135.91
2022-12-19T13:24:24.748Z,102141.53
2022-12-19T13:26:59.242Z,102138.97
2022-12-19T13:29:34.362Z,102132.94
2022-12-19T13:31:36.592Z,102132.03
2022-12-19T13:33:56.050Z,102130.16
2022-12-19T13:39:52.391Z,102120.19
2022-12-19T13:39:54.402Z,102122.34
2022-12-19T13:41:01.435Z,102109.31
2022-12-19T13:43:24.455Z,102112.50
2022-12-19T13:45:30.939Z,102107.94
2022-12-19T13:47:36.944Z,102115.44
2022-12-19T13:49:39.284Z,102116.63
2022-12-19T13:51:57.107Z,102119.69
2022-12-19T13:54:00.066Z,102106.09
2022-12-19T13:56:05.177Z,102116.09
2022-12-19T13:58:08.723Z,102109.00
2022-12-19T14:00:16.815Z,102095.53
2022-12-19T14:02:27.629Z,102093.38
2022-12-19T14:04:32.554Z,102083.00
2022-12-19T14:06:46.269Z,102087.66
2022-12-19T14:09:20.483Z,102088.19
2022-12-19T14:11:37.234Z,102074.81
2022-12-19T14:14:27.962Z,102073.03
2022-12-19T14:16:43.345Z,102070.50
2022-12-19T14:18:50.765Z,102077.34
2022-12-19T14:22:03.940Z,102070.75
2022-12-19T14:23:43.754Z,102074.84
2022-12-19T14:28:27.677Z,102059.63
2022-12-19T14:28:29.244Z,102058.69
2022-12-19T14:30:35.148Z,102062.69
2022-12-19T14:33:45.140Z,102057.84
2022-12-19T14:36:06.875Z,102060.00
2022-12-19T14:38:12.529Z,102048.16
2022-12-19T14:40:25.143Z,102049.25
2022-12-19T14:43:59.873Z,102050.41
2022-12-19T14:52:34.427Z,102043.44
2022-12-19T14:53:08.459Z,102035.53
2022-12-19T14:54:07.297Z,102026.56
2022-12-19T14:54:37.733Z,102021.75
2022-12-19T14:56:12.224Z,102020.88
2022-12-19T14:58:54.885Z,102002.94
2022-12-19T15:01:10.066Z,102003.28
2022-12-19T15:03:15.709Z,102006.91
2022-12-19T15:05:20.561Z,102005.63
2022-12-19T15:07:27.140Z,102005.84
2022-12-19T15:11:01.101Z,102008.31
2022-12-19T15:14:47.270Z,101992.75
2022-12-19T15:14:59.023Z,101988.28
2022-12-19T15:17:21.206Z,101990.03
2022-12-19T15:19:25.547Z,101975.38
2022-12-19T15:21:30.075Z,101983.97
2022-12-19T15:23:32.986Z,101986.91
2022-12-19T15:26:02.735Z,101986.53
2022-12-19T15:27:57.371Z,101987.28
2022-12-19T15:30:02.520Z,101978.81
2022-12-19T15:32:04.624Z,101969.28
2022-12-19T15:34:38.020Z,101965.16
2022-12-19T15:36:42.397Z,101963.97
2022-12-19T15:38:44.481Z,101949.31
2022-12-19T15:40:50.033Z,101951.31
2022-12-19T15:42:57.901Z,101951.69
2022-12-19T15:45:01.348Z,101949.38
2022-12-19T15:47:06.520Z,101961.56
2022-12-19T15:49:15.697Z,101968.72
2022-12-19T15:51:18.046Z,101969.03
2022-12-19T15:53:40.229Z,101961.97
2022-12-19T15:55:44.063Z,101966.66
2022-12-19T15:58:00.002Z,101962.56
2022-12-19T16:00:05.526Z,101951.44
2022-12-19T16:02:37.524Z,101935.41
2022-12-19T16:04:54.585Z,101923.19
2022-12-19T16:07:01.956Z,101914.25
2022-12-19T16:09:17.705Z,101912.59
2022-12-19T16:11:23.507Z,101920.81
2022-12-19T16:13:29.036Z,101919.59
2022-12-19T16:15:34.607Z,101919.81
2022-12-19T16:17:38.381Z,101916.38
2022-12-19T16:19:45.707Z,101927.75
2022-12-19T16:21:47.981Z,101922.25
2022-12-19T16:23:50.107Z,101917.59
2022-12-19T16:25:53.506Z,101909.22
2022-12-19T16:27:58.603Z,101897.22
2022-12-19T16:30:19.255Z,101889.31
2022-12-19T16:32:36.852Z,101881.97
2022-12-19T16:34:38.916Z,101880.66
2022-12-19T16:36:43.779Z,101881.78
2022-12-19T16:38:46.079Z,101871.44
2022-12-19T16:40:51.326Z,101880.41
2022-12-19T16:43:04.809Z,101873.84
2022-12-19T16:45:29.105Z,101868.50
2022-12-19T16:47:31.203Z,101857.06
2022-12-19T16:49:33.303Z,101856.03
2022-12-19T16:51:35.984Z,101839.53
2022-12-19T16:53:38.003Z,101846.66
2022-12-19T16:55:40.535Z,101842.03
2022-12-19T16:57:45.281Z,101843.16
2022-12-19T16:59:49.143Z,101846.00
2022-12-19T17:01:54.039Z,101830.97
2022-12-19T17:03:56.483Z,101834.44
2022-12-19T17:06:18.482Z,101827.97
2022-12-19T17:08:21.505Z,101831.13
2022-12-19T17:10:29.821Z,101823.91
2022-12-19T17:12:32.040Z,101815.44
2022-12-19T17:14:34.156Z,101814.06
2022-12-19T17:16:36.929Z,101808.19
2022-12-19T17:18:42.113Z,101802.03
2022-12-19T17:20:46.750Z,101800.47
2022-12-19T17:22:48.771Z,101790.38
2022-12-19T17:24:54.683Z,101793.63
2022-12-19T17:26:58.741Z,101803.22
2022-12-19T17:29:00.743Z,101796.16
2022-12-19T17:31:06.496Z,101790.38
2022-12-19T17:33:15.624Z,101773.41
2022-12-19T17:35:25.851Z,101789.69
2022-12-19T17:37:30.060Z,101789.00
2022-12-19T17:39:35.031Z,101792.22
2022-12-19T17:41:37.125Z,101796.34
2022-12-19T17:43:39.098Z,101788.75
2022-12-19T17:45:41.837Z,101785.19
2022-12-19T17:47:46.342Z,101789.81
2022-12-19T17:49:48.887Z,101791.34
2022-12-19T17:51:54.853Z,101789.88
2022-12-19T17:53:57.800Z,101782.28
2022-12-19T17:56:00.719Z,101780.44
2022-12-19T17:58:02.877Z,101779.06
2022-12-19T18:00:05.263Z,101774.38
2022-12-19T18:02:20.211Z,101785.94
2022-12-19T18:04:24.493Z,101767.75
2022-12-19T18:06:26.678Z,101768.53
2022-12-19T18:08:32.023Z,101766.03
2022-12-19T18:10:34.065Z,101765.22
2022-12-19T18:12:36.124Z,101763.59
2022-12-19T18:14:38.233Z,101764.19
2022-12-19T18:16:40.385Z,101753.44
2022-12-19T18:18:42.765Z,101753.34
2022-12-19T18:20:45.106Z,101755.94
2022-12-19T18:22:48.449Z,101750.41
2022-12-19T18:24:50.557Z,101749.53
2022-12-19T18:26:52.955Z,101740.81
2022-12-19T18:28:55.148Z,101738.78
2022-12-19T18:31:02.308Z,101732.72
2022-12-19T18:33:06.569Z,101732.13
2022-12-19T18:35:17.470Z,101736.00
2022-12-19T18:37:19.815Z,101742.22
2022-12-19T18:39:27.937Z,101745.06
2022-12-19T18:41:30.094Z,101736.19
2022-12-19T18:43:33.738Z,101725.56
2022-12-19T18:45:41.699Z,101724.81
2022-12-19T18:47:51.332Z,101719.00
2022-12-19T18:49:53.970Z,101712.81
2022-12-19T18:51:56.621Z,101717.84
2022-12-19T18:53:58.925Z,101712.41
2022-12-19T18:56:03.110Z,101714.28
2022-12-19T18:58:05.183Z,101711.66
2022-12-19T19:00:09.183Z,101720.88
2022-12-19T19:02:27.773Z,101713.50
2022-12-19T19:04:30.761Z,101709.34
2022-12-19T19:06:38.123Z,101706.44
2022-12-19T19:08:41.158Z,101699.91
2022-12-19T19:10:44.320Z,101694.94
2022-12-19T19:12:48.748Z,101689.91
2022-12-19T19:14:53.099Z,101698.19
2022-12-19T19:16:56.582Z,101696.28
2022-12-19T19:19:01.429Z,101694.81
2022-12-19T19:21:04.922Z,101691.72
2022-12-19T19:23:10.688Z,101691.44
2022-12-19T19:25:12.910Z,101693.66
2022-12-19T19:27:16.416Z,101690.97
2022-12-19T19:29:23.513Z,101673.69
2022-12-19T19:31:28.290Z,101674.22
2022-12-19T19:33:38.456Z,101667.75
2022-12-19T19:35:45.835Z,101669.19
2022-12-19T19:37:52.383Z,101656.81
2022-12-19T19:39:55.808Z,101658.03
2022-12-19T19:41:58.232Z,101659.72
2022-12-19T19:44:04.538Z,101648.06
2022-12-19T19:46:06.697Z,101636.72
2022-12-19T19:48:08.974Z,101634.97
2022-12-19T19:50:12.762Z,101634.81
2022-12-19T19:52:16.901Z,101639.69
2022-12-19T19:54:19.784Z,101644.72
2022-12-19T19:56:22.392Z,101640.16
2022-12-19T19:58:27.326Z,101633.94
2022-12-19T20:00:29.559Z,101632.81
2022-12-19T20:02:31.916Z,101638.72
2022-12-19T20:04:35.149Z,101636.78
2022-12-19T20:06:37.463Z,101626.03
2022-12-19T20:08:40.908Z,101634.88
2022-12-19T20:10:44.371Z,101634.59
2022-12-19T20:12:46.940Z,101631.19
2022-12-19T20:14:49.004Z,101621.16
2022-12-19T20:16:51.379Z,101620.25
2022-12-19T20:18:53.989Z,101613.63
2022-12-19T20:20:57.764Z,101613.88
2022-12-19T20:23:00.006Z,101610.03
2022-12-19T20:25:02.449Z,101606.47
2022-12-19T20:27:05.010Z,101596.72
2022-12-19T20:29:08.092Z,101606.94
2022-12-19T20:31:11.345Z,101599.81
2022-12-19T20:33:13.991Z,101591.56
2022-12-19T20:35:16.423Z,101597.19
2022-12-19T20:37:19.202Z,101593.63
2022-12-19T20:39:22.446Z,101586.69
2022-12-19T20:41:25.656Z,101595.28
2022-12-19T20:43:27.875Z,101587.75
2022-12-19T20:45:32.450Z,101591.28
2022-12-19T20:47:40.594Z,101591.16
2022-12-19T20:49:42.562Z,101590.28
2022-12-19T20:51:45.002Z,101584.34
2022-12-19T20:53:47.802Z,101582.13
2022-12-19T20:55:58.273Z,101587.03
2022-12-19T20:58:00.726Z,101576.09
2022-12-19T21:00:07.880Z,101576.53
2022-12-19T21:02:11.465Z,101578.72
2022-12-19T21:04:15.720Z,101564.25
2022-12-19T21:06:20.040Z,101557.44
2022-12-19T21:08:22.818Z,101563.38
2022-12-19T21:10:25.841Z,101561.16
2022-12-19T21:12:29.589Z,101550.22
2022-12-19T21:14:31.809Z,101543.56
2022-12-19T21:16:39.795Z,101553.00
2022-12-19T21:18:43.172Z,101550.34
2022-12-19T21:20:45.394Z,101536.13
2022-12-19T21:22:53.410Z,101530.22
2022-12-19T21:24:55.733Z,101539.25
2022-12-19T21:26:58.407Z,101539.25
2022-12-19T21:29:00.930Z,101536.56
2022-12-19T21:31:12.061Z,101528.59
2022-12-19T21:33:14.139Z,101524.13
2022-12-19T21:35:16.171Z,101520.28
2022-12-19T21:37:18.169Z,101524.84
2022-12-19T21:39:25.534Z,101512.28
2022-12-19T21:41:29.570Z,101505.88
2022-12-19T21:43:35.563Z,101505.09
2022-12-19T21:45:37.423Z,101504.91
2022-12-19T21:47:40.340Z,101494.56
2022-12-19T21:49:42.413Z,101491.78
2022-12-19T21:51:44.340Z,101485.13
2022-12-19T21:53:47.499Z,101482.91
2022-12-19T21:55:50.422Z,101468.22
2022-12-19T21:57:52.427Z,101467.13
2022-12-19T21:59:54.456Z,101467.75
2022-12-19T22:01:56.543Z,101458.28
2022-12-19T22:04:00.709Z,101451.72
2022-12-19T22:06:06.075Z,101447.47
2022-12-19T22:08:10.967Z,101450.41
2022-12-19T22:10:14.081Z,101447.41
2022-12-19T22:12:16.006Z,101447.22
2022-12-19T22:14:18.572Z,101442.84
2022-12-19T22:16:20.527Z,101431.44
2022-12-19T22:18:22.532Z,101439.03
2022-12-19T22:20:24.406Z,101433.03
2022-12-19T22:22:27.352Z,101426.31
2022-12-19T22:24:29.367Z,101426.59
2022-12-19T22:26:31.991Z,101427.88
2022-12-19T22:28:36.763Z,101419.84
2022-12-19T22:30:39.750Z,101419.72
2022-12-19T22:32:41.875Z,101414.59
2022-12-19T22:34:47.563Z,101416.09
2022-12-19T22:36:49.667Z,101407.56
2022-12-19T22:38:52.321Z,101409.19
2022-12-19T22:40:54.220Z,101407.34
2022-12-19T22:42:56.104Z,101407.34
2022-12-19T22:44:58.125Z,101400.19
2022-12-19T22:47:00.138Z,101411.13
2022-12-19T22:49:04.733Z,101393.28
2022-12-19T22:51:07.571Z,101390.50
2022-12-19T22:53:12.710Z,101389.75
2022-12-19T22:55:16.139Z,101382.84
2022-12-19T22:57:18.109Z,101375.75
2022-12-19T22:59:20.162Z,101377.94
2022-12-19T23:01:28.050Z,101380.47
2022-12-19T23:03:31.536Z,101376.56
2022-12-19T23:05:36.675Z,101371.66
2022-12-19T23:07:38.519Z,101363.84
2022-12-19T23:09:40.439Z,101361.59
2022-12-19T23:11:44.358Z,101361.59
2022-12-19T23:13:47.934Z,101352.03
2022-12-19T23:15:49.835Z,101357.31
2022-12-19T23:17:51.840Z,101347.47
2022-12-19T23:19:53.804Z,101350.53
2022-12-19T23:21:55.699Z,101343.34
2022-12-19T23:23:58.570Z,101341.47
2022-12-19T23:26:00.833Z,101332.25
2022-12-19T23:28:03.146Z,101337.66
2022-12-19T23:30:05.801Z,101341.34
2022-12-19T23:32:07.997Z,101339.06
2022-12-19T23:34:10.783Z,101343.25
2022-12-19T23:36:13.007Z,101339.06
2022-12-19T23:38:15.947Z,101338.81
2022-12-19T23:40:18.036Z,101341.59
2022-12-19T23:42:21.137Z,101339.44
2022-12-19T23:44:23.148Z,101340.84
2022-12-19T23:46:27.169Z,101335.94
2022-12-19T23:48:29.114Z,101326.31
2022-12-19T23:50:31.150Z,101327.59
2022-12-19T23:52:33.123Z,101338.31
2022-12-19T23:54:35.157Z,101324.53
2022-12-19T23:56:38.169Z,101321.91
2022-12-19T23:58:40.585Z,101324.16
